Time;durP1;ratioP1;P1;durP2;ratioP2;P2;SDS_P1;SDS_P2;PMS_P1;PMS_P2;Temp;Humidity;BMP_temperature;BMP_pressure;BME280_temperature;BME280_humidity;BME280_pressure;Samples;Min_cycle;Max_cycle;Signal;HPM_P1;HPM_P2
2022/11/28 00:04:56;;;;;;;51.73;31.37;;;5.20;99.90;;;;;;10373674;28;20200;-87
2022/11/28 00:10:00;;;;;;;48.40;28.87;;;4.20;99.90;;;;;;10373093;28;20204;-88
2022/11/28 00:15:04;;;;;;;46.03;29.13;;;4.10;99.90;;;;;;10372716;28;20200;-86
2022/11/28 00:20:07;;;;;;;42.77;27.03;;;4.00;99.90;;;;;;10367602;28;20341;-87
2022/11/28 00:25:10;;;;;;;51.53;30.27;;;3.70;99.90;;;;;;10349841;28;20231;-86
2022/11/28 00:30:12;;;;;;;49.00;30.30;;;3.80;99.90;;;;;;10367758;28;20235;-86
2022/11/28 00:35:15;;;;;;;53.60;33.03;;;4.00;99.90;;;;;;10334027;28;20260;-87
2022/11/28 00:40:17;;;;;;;46.97;30.67;;;4.00;99.90;;;;;;10336078;28;20252;-86
2022/11/28 00:45:19;;;;;;;30.73;18.60;;;3.70;99.90;;;;;;10349489;28;20240;-86
2022/11/28 00:50:22;;;;;;;45.87;28.00;;;4.30;99.90;;;;;;10349530;28;20236;-86
2022/11/28 00:55:25;;;;;;;36.63;23.10;;;5.20;99.90;;;;;;10349120;28;20236;-86
2022/11/28 01:00:27;;;;;;;26.70;17.97;;;5.90;99.90;;;;;;10350177;28;20717;-86
2022/11/28 01:05:30;;;;;;;41.27;26.00;;;6.10;99.90;;;;;;10373983;28;20192;-86
2022/11/28 01:10:32;;;;;;;40.07;26.40;;;6.40;99.90;;;;;;10339108;28;20215;-86
2022/11/28 01:15:35;;;;;;;39.70;24.17;;;7.00;99.90;;;;;;10373948;28;20290;-85
2022/11/28 01:20:37;;;;;;;32.27;18.50;;;7.30;99.90;;;;;;10351896;28;20302;-86
2022/11/28 01:25:40;;;;;;;31.60;20.60;;;7.10;99.90;;;;;;10332900;28;20236;-86
2022/11/28 01:30:42;;;;;;;37.90;21.40;;;7.40;99.90;;;;;;10331335;28;20240;-85
2022/11/28 01:35:55;;;;;;;37.20;24.00;;;7.50;99.90;;;;;;10336968;28;20224;-85
2022/11/28 01:40:58;;;;;;;29.47;18.23;;;7.20;99.90;;;;;;10365102;28;20252;-86
2022/11/28 01:46:01;;;;;;;35.77;21.67;;;7.20;99.90;;;;;;10371433;28;20727;-87
2022/11/28 01:51:08;;;;;;;35.13;21.70;;;7.50;99.90;;;;;;10354022;28;20211;-86
2022/11/28 01:56:24;;;;;;;37.77;23.70;;;7.40;99.90;;;;;;10353800;28;20286;-86
2022/11/28 02:01:27;;;;;;;35.20;21.27;;;7.40;99.90;;;;;;10360296;28;20256;-86
2022/11/28 02:06:31;;;;;;;34.87;23.53;;;7.90;99.90;;;;;;10331387;28;20607;-86
2022/11/28 02:11:55;;;;;;;36.40;22.50;;;7.80;99.90;;;;;;10348743;28;20212;-86
2022/11/28 02:17:28;;;;;;;40.17;23.57;;;8.10;99.90;;;;;;10371289;28;20239;-86
2022/11/28 02:22:43;;;;;;;39.13;23.73;;;7.70;99.90;;;;;;10369882;28;20251;-87
2022/11/28 02:28:01;;;;;;;38.63;22.93;;;7.60;99.90;;;;;;10371000;28;20246;-87
2022/11/28 02:33:15;;;;;;;37.70;22.73;;;7.70;99.90;;;;;;10370485;28;20791;-86
2022/11/28 02:38:20;;;;;;;37.47;22.20;;;7.70;99.90;;;;;;10369124;28;20650;-86
2022/11/28 02:43:39;;;;;;;40.20;21.97;;;7.90;99.90;;;;;;10337140;28;20590;-86
2022/11/28 02:49:04;;;;;;;55.20;31.27;;;7.70;99.90;;;;;;10329280;28;20294;-87
2022/11/28 02:54:10;;;;;;;35.20;21.77;;;6.50;99.90;;;;;;10333862;28;20239;-85
2022/11/28 02:59:41;;;;;;;51.43;29.47;;;6.50;99.90;;;;;;10351452;28;20263;-87
2022/11/28 03:04:46;;;;;;;35.77;21.80;;;5.50;99.90;;;;;;10339121;28;20270;-87
2022/11/28 03:10:02;;;;;;;52.73;30.27;;;6.00;99.90;;;;;;10350896;28;20216;-87
2022/11/28 03:15:07;;;;;;;28.23;18.60;;;6.10;99.90;;;;;;10351454;28;20797;-87
2022/11/28 03:20:22;;;;;;;31.93;19.30;;;6.10;99.90;;;;;;10319260;28;20252;-87
2022/11/28 03:25:48;;;;;;;29.93;20.43;;;6.70;99.90;;;;;;10327035;28;20240;-87
2022/11/28 03:31:06;;;;;;;45.70;25.87;;;7.10;99.90;;;;;;10310775;28;20213;-87
2022/11/28 03:36:15;;;;;;;40.50;25.17;;;7.70;99.90;;;;;;10326480;28;20234;-87
2022/11/28 03:41:24;;;;;;;47.70;23.53;;;7.90;99.90;;;;;;10341619;28;20297;-87
2022/11/28 03:46:35;;;;;;;41.60;24.93;;;7.90;99.90;;;;;;10367592;28;20751;-87
2022/11/28 03:51:48;;;;;;;34.60;19.17;;;7.90;99.90;;;;;;10355409;28;20672;-87
2022/11/28 03:57:19;;;;;;;34.00;21.07;;;8.10;99.90;;;;;;10308793;28;20268;-87
2022/11/28 04:02:36;;;;;;;37.03;21.27;;;8.20;99.90;;;;;;10349388;28;21008;-86
2022/11/28 04:07:47;;;;;;;29.97;17.53;;;7.90;99.90;;;;;;10367210;28;20226;-86
2022/11/28 04:13:14;;;;;;;33.13;20.73;;;7.60;99.90;;;;;;10366888;28;20289;-87
2022/11/28 04:18:28;;;;;;;35.87;23.37;;;7.60;99.90;;;;;;10348815;28;20633;-87
2022/11/28 04:23:33;;;;;;;40.83;21.57;;;7.20;99.90;;;;;;10365521;28;20688;-88
2022/11/28 04:28:37;;;;;;;29.53;18.43;;;7.20;99.90;;;;;;10348705;28;20241;-86
2022/11/28 04:33:46;;;;;;;30.03;17.33;;;7.10;99.90;;;;;;10349520;28;20285;-87
2022/11/28 04:38:55;;;;;;;31.27;21.27;;;7.30;99.90;;;;;;10354830;28;20294;-87
2022/11/28 04:44:03;;;;;;;34.57;19.80;;;7.50;99.90;;;;;;10374135;28;20212;-87
2022/11/28 04:49:06;;;;;;;32.20;17.90;;;7.70;99.90;;;;;;10357101;28;20613;-86
2022/11/28 04:54:14;;;;;;;38.97;23.07;;;7.30;99.90;;;;;;10374060;28;20310;-87
2022/11/28 04:59:19;;;;;;;29.43;18.53;;;7.20;99.90;;;;;;10332705;28;20244;-87
2022/11/28 05:04:21;;;;;;;36.83;21.53;;;7.80;99.90;;;;;;10369087;28;20223;-86
2022/11/28 05:09:24;;;;;;;25.47;17.13;;;7.70;99.90;;;;;;10373234;28;20291;-86
2022/11/28 05:14:26;;;;;;;31.20;18.57;;;7.80;99.90;;;;;;10341076;28;20277;-87
2022/11/28 05:19:29;;;;;;;29.27;19.33;;;8.20;99.90;;;;;;10371734;28;20240;-86
2022/11/28 05:24:31;;;;;;;27.67;17.57;;;8.10;99.90;;;;;;10333873;28;20686;-86
2022/11/28 05:29:33;;;;;;;26.47;16.97;;;8.20;99.90;;;;;;10332076;28;20708;-86
2022/11/28 05:34:36;;;;;;;32.23;18.60;;;8.00;99.90;;;;;;10367870;28;20585;-86
2022/11/28 05:39:39;;;;;;;31.10;18.07;;;7.80;99.90;;;;;;10330377;28;20330;-86
2022/11/28 05:44:41;;;;;;;28.93;18.47;;;7.80;99.90;;;;;;10350376;28;20204;-86
2022/11/28 05:49:46;;;;;;;28.97;17.30;;;7.80;99.90;;;;;;10370220;28;20224;-85
2022/11/28 05:54:48;;;;;;;31.03;18.93;;;7.90;99.90;;;;;;10316389;28;20662;-86
2022/11/28 05:59:50;;;;;;;31.40;19.03;;;7.70;99.90;;;;;;10330530;28;20305;-85
2022/11/28 06:04:53;;;;;;;35.27;22.13;;;7.50;99.90;;;;;;10371552;28;20305;-85
2022/11/28 06:09:55;;;;;;;35.23;21.03;;;7.80;99.90;;;;;;10360413;28;20232;-86
2022/11/28 06:14:58;;;;;;;35.07;20.93;;;7.50;99.90;;;;;;10354183;28;20256;-86
2022/11/28 06:20:00;;;;;;;27.67;16.33;;;7.50;99.90;;;;;;10364973;28;20247;-86
2022/11/28 06:25:03;;;;;;;30.00;17.83;;;7.80;99.90;;;;;;10349563;28;20232;-86
2022/11/28 06:30:06;;;;;;;26.67;16.93;;;7.90;99.90;;;;;;10314180;28;20293;-86
2022/11/28 06:35:09;;;;;;;32.17;20.77;;;8.30;99.90;;;;;;10312559;28;20642;-87
2022/11/28 06:40:11;;;;;;;26.13;17.30;;;8.20;99.90;;;;;;10351871;28;20259;-86
2022/11/28 06:45:14;;;;;;;54.37;31.63;;;8.20;99.90;;;;;;10352400;28;20680;-86
2022/11/28 06:50:16;;;;;;;38.67;23.47;;;8.20;99.90;;;;;;10352208;28;20208;-86
2022/11/28 06:55:19;;;;;;;36.37;22.77;;;7.90;99.90;;;;;;10367225;28;20654;-86
2022/11/28 07:00:22;;;;;;;32.73;19.20;;;7.90;99.90;;;;;;10356440;28;20248;-85
2022/11/28 07:05:26;;;;;;;25.83;17.30;;;8.00;99.90;;;;;;10348280;28;20236;-85
2022/11/28 07:10:29;;;;;;;29.27;16.70;;;8.20;99.90;;;;;;10316443;28;20212;-85
2022/11/28 07:15:31;;;;;;;26.67;16.43;;;8.50;99.90;;;;;;10345763;28;20792;-86
2022/11/28 07:20:34;;;;;;;27.57;15.37;;;8.70;99.90;;;;;;10344815;28;20297;-86
2022/11/28 07:25:37;;;;;;;23.27;14.70;;;8.70;99.90;;;;;;10327755;28;20684;-86
2022/11/28 07:30:40;;;;;;;26.43;16.10;;;8.80;99.90;;;;;;10345018;28;20256;-86
2022/11/28 07:35:42;;;;;;;26.03;16.87;;;9.00;99.90;;;;;;10367164;28;20228;-86
2022/11/28 07:40:45;;;;;;;23.97;15.67;;;9.20;99.90;;;;;;10337755;28;20306;-86
2022/11/28 07:45:47;;;;;;;29.43;18.77;;;9.10;99.90;;;;;;10309541;28;20303;-86
2022/11/28 07:51:10;;;;;;;23.10;15.53;;;9.00;99.90;;;;;;10364657;28;20216;-87
2022/11/28 07:56:15;;;;;;;23.07;16.40;;;9.30;99.90;;;;;;10347658;28;20305;-86
2022/11/28 08:01:21;;;;;;;22.83;13.97;;;9.20;99.90;;;;;;10356092;28;20693;-87
2022/11/28 08:06:27;;;;;;;29.27;16.37;;;9.20;99.90;;;;;;10347297;28;20620;-87
2022/11/28 08:11:30;;;;;;;24.67;14.73;;;8.90;99.90;;;;;;10370549;28;20622;-86
2022/11/28 08:16:33;;;;;;;21.17;13.10;;;8.80;99.90;;;;;;10366785;28;20282;-87
2022/11/28 08:21:36;;;;;;;18.67;11.77;;;9.20;99.90;;;;;;10360060;28;20244;-87
2022/11/28 08:26:38;;;;;;;20.93;12.37;;;10.00;99.90;;;;;;10377620;28;20202;-92
2022/11/28 08:31:41;;;;;;;27.83;15.57;;;9.50;99.90;;;;;;10325409;28;20281;-93
2022/11/28 08:36:46;;;;;;;23.33;14.20;;;10.00;93.50;;;;;;10340709;28;20203;-93
2022/11/28 08:41:48;;;;;;;28.67;17.13;;;10.00;92.30;;;;;;10353031;28;20310;-93
2022/11/28 08:46:52;;;;;;;24.73;14.87;;;10.10;90.80;;;;;;10332089;28;20670;-94
2022/11/28 08:51:54;;;;;;;28.43;14.60;;;10.00;91.50;;;;;;10330842;28;20205;-93
2022/11/28 08:56:57;;;;;;;27.63;16.50;;;10.00;91.40;;;;;;10355146;28;20291;-92
2022/11/28 09:02:00;;;;;;;23.10;13.87;;;10.20;90.10;;;;;;10336067;28;20258;-92
2022/11/28 09:07:03;;;;;;;41.47;26.87;;;10.70;91.70;;;;;;10352241;28;20556;-84
2022/11/28 09:12:06;;;;;;;53.07;18.17;;;10.30;77.50;;;;;;10370657;28;20239;-86
2022/11/28 09:17:08;;;;;;;46.60;15.20;;;7.50;99.90;;;;;;10370960;28;20651;-86
2022/11/28 09:22:11;;;;;;;47.93;19.60;;;9.30;99.90;;;;;;10353351;28;20254;-86
2022/11/28 09:27:13;;;;;;;38.97;15.53;;;10.10;98.70;;;;;;10338560;28;20314;-87
2022/11/28 09:32:16;;;;;;;38.27;15.83;;;10.80;99.90;;;;;;10337267;28;20617;-86
2022/11/28 09:37:18;;;;;;;51.83;17.70;;;10.80;99.90;;;;;;10350099;28;20633;-87
2022/11/28 09:42:27;;;;;;;35.03;9.23;;;10.90;99.90;;;;;;10318270;28;20317;-86
2022/11/28 09:47:33;;;;;;;34.77;16.33;;;11.30;99.90;;;;;;10353352;28;20231;-86
2022/11/28 09:53:14;;;;;;;35.43;14.77;;;11.30;98.40;;;;;;10342617;28;20714;-86
2022/11/28 09:58:35;;;;;;;37.77;17.93;;;11.70;97.90;;;;;;10300963;28;20283;-86
2022/11/28 10:03:43;;;;;;;36.13;16.03;;;11.40;97.20;;;;;;10354264;28;20299;-85
2022/11/28 10:08:52;;;;;;;36.80;15.73;;;11.40;98.30;;;;;;10355173;28;20205;-86
2022/11/28 10:14:16;;;;;;;31.87;17.37;;;11.40;98.90;;;;;;10333341;28;20266;-85
2022/11/28 10:19:35;;;;;;;28.20;15.30;;;11.40;94.20;;;;;;10346769;28;20232;-85
2022/11/28 10:24:58;;;;;;;29.73;16.20;;;11.50;97.30;;;;;;10307799;28;20256;-85
2022/11/28 10:30:09;;;;;;;34.37;14.73;;;11.60;98.50;;;;;;10347577;28;20236;-85
2022/11/28 10:35:33;;;;;;;35.60;16.13;;;11.90;97.40;;;;;;10337094;28;20235;-85
2022/11/28 10:40:54;;;;;;;32.07;16.67;;;11.20;99.90;;;;;;10352708;28;20302;-86
2022/11/28 10:46:15;;;;;;;27.43;14.67;;;11.60;99.40;;;;;;10337296;28;20232;-85
2022/11/28 10:51:34;;;;;;;26.80;15.77;;;11.80;97.30;;;;;;10337611;28;20242;-86
2022/11/28 10:56:53;;;;;;;27.83;12.47;;;11.90;99.00;;;;;;10331557;28;20264;-86
2022/11/28 11:01:57;;;;;;;24.10;11.87;;;12.30;98.80;;;;;;10366188;28;20309;-86
2022/11/28 11:07:21;;;;;;;23.00;11.57;;;12.00;98.10;;;;;;10318730;28;20228;-86
2022/11/28 11:12:33;;;;;;;24.30;11.97;;;11.90;99.10;;;;;;10343903;28;20252;-86
2022/11/28 11:17:36;;;;;;;25.17;14.37;;;11.80;98.90;;;;;;10322847;28;20216;-86
2022/11/28 11:22:39;;;;;;;37.97;25.37;;;12.50;96.30;;;;;;10365793;28;20329;-86
2022/11/28 11:27:50;;;;;;;26.97;13.43;;;10.70;89.20;;;;;;10358844;28;20232;-85
2022/11/28 11:32:55;;;;;;;37.20;16.47;;;11.20;99.90;;;;;;10350606;28;20355;-85
2022/11/28 11:38:20;;;;;;;46.87;20.87;;;11.70;99.90;;;;;;10366914;28;20236;-85
2022/11/28 11:43:29;;;;;;;38.50;17.03;;;12.40;99.00;;;;;;10366729;28;20376;-85
2022/11/28 11:48:40;;;;;;;30.13;13.43;;;12.40;96.80;;;;;;10345633;28;20227;-85
2022/11/28 11:53:43;;;;;;;126.73;55.50;;;11.90;98.50;;;;;;10343414;28;20266;-85
2022/11/28 11:58:50;;;;;;;29.77;14.33;;;12.10;92.60;;;;;;10352107;28;20237;-85
2022/11/28 12:03:59;;;;;;;35.43;14.03;;;11.50;98.90;;;;;;10329374;28;20255;-85
2022/11/28 12:09:31;;;;;;;62.80;26.37;;;12.10;98.90;;;;;;10360519;28;20285;-86
2022/11/28 12:14:37;;;;;;;55.83;27.90;;;11.70;97.00;;;;;;10362940;28;20293;-85
2022/11/28 12:19:59;;;;;;;29.50;17.97;;;11.70;97.50;;;;;;10335736;28;20211;-85
2022/11/28 12:25:24;;;;;;;43.70;20.30;;;11.90;98.30;;;;;;10366645;28;20995;-85
2022/11/28 12:30:45;;;;;;;37.30;19.83;;;11.90;99.30;;;;;;10348432;28;20232;-85
2022/11/28 12:36:31;;;;;;;24.63;12.60;;;11.90;95.10;;;;;;10357631;28;20236;-85
2022/11/28 12:42:04;;;;;;;28.57;17.33;;;12.20;97.80;;;;;;10184622;29;20254;-85
2022/11/28 12:47:30;;;;;;;33.53;18.20;;;11.80;99.20;;;;;;10170199;29;20247;-85
2022/11/28 12:53:08;;;;;;;28.67;13.97;;;12.20;97.10;;;;;;10181734;29;20246;-85
2022/11/28 12:58:51;;;;;;;27.70;16.87;;;12.00;98.60;;;;;;10170306;29;20246;-85
2022/11/28 13:04:11;;;;;;;24.77;14.07;;;11.80;97.30;;;;;;10199455;29;20402;-85
2022/11/28 13:09:47;;;;;;;31.63;17.93;;;12.00;94.40;;;;;;10192340;29;20315;-85
2022/11/28 13:14:52;;;;;;;30.87;18.13;;;11.60;98.70;;;;;;10193485;28;20251;-85
2022/11/28 13:20:15;;;;;;;22.13;12.27;;;11.90;96.40;;;;;;10368302;28;20224;-85
2022/11/28 13:25:53;;;;;;;29.03;17.23;;;11.30;99.80;;;;;;10367251;28;20260;-86
2022/11/28 13:31:23;;;;;;;30.83;17.30;;;11.00;97.50;;;;;;10332163;28;20220;-85
2022/11/28 13:36:33;;;;;;;18.53;10.30;;;11.10;99.90;;;;;;10349044;28;20218;-85
2022/11/28 13:42:27;;;;;;;22.37;13.10;;;11.50;99.90;;;;;;10361681;28;20764;-85
2022/11/28 13:47:49;;;;;;;28.30;15.80;;;11.30;99.90;;;;;;10331621;28;20287;-86
2022/11/28 13:53:00;;;;;;;22.73;11.97;;;11.30;98.00;;;;;;10333999;28;20314;-85
2022/11/28 13:58:30;;;;;;;23.00;10.97;;;11.20;99.00;;;;;;10353129;28;20235;-85
2022/11/28 14:03:35;;;;;;;47.23;28.23;;;11.30;99.20;;;;;;10368570;28;20259;-86
2022/11/28 14:08:40;;;;;;;29.30;15.40;;;11.10;97.50;;;;;;10353679;28;20250;-85
2022/11/28 14:14:01;;;;;;;24.57;16.30;;;10.70;99.90;;;;;;10352353;28;20302;-85
2022/11/28 14:19:11;;;;;;;31.47;19.10;;;10.50;99.90;;;;;;10367541;28;20306;-85
2022/11/28 14:24:32;;;;;;;26.77;15.70;;;10.50;99.90;;;;;;10370127;28;20650;-86
2022/11/28 14:29:39;;;;;;;26.67;16.73;;;10.70;99.90;;;;;;10352849;28;20224;-85
2022/11/28 14:34:49;;;;;;;26.23;15.30;;;10.20;99.90;;;;;;10335870;28;20270;-85
2022/11/28 14:39:55;;;;;;;19.07;11.90;;;10.30;99.90;;;;;;10369661;28;20231;-85
2022/11/28 14:44:59;;;;;;;30.47;15.00;;;10.20;99.90;;;;;;10319655;28;20712;-86
2022/11/28 14:50:10;;;;;;;24.47;13.13;;;10.30;99.90;;;;;;10345304;28;20232;-85
2022/11/28 14:55:24;;;;;;;29.80;15.63;;;10.00;99.90;;;;;;10343871;28;20674;-85
2022/11/28 15:01:06;;;;;;;21.50;13.27;;;9.90;99.90;;;;;;10323288;28;20236;-83
2022/11/28 15:06:20;;;;;;;25.73;13.10;;;11.00;99.90;;;;;;10172690;29;20285;-85
2022/11/28 15:11:57;;;;;;;41.17;25.27;;;11.50;99.90;;;;;;10198911;29;20249;-84
2022/11/28 15:17:03;;;;;;;41.77;26.17;;;9.60;91.90;;;;;;10157814;29;20240;-84
2022/11/28 15:22:29;;;;;;;22.77;13.50;;;6.10;99.90;;;;;;10203037;29;20254;-83
2022/11/28 15:27:32;;;;;;;26.63;15.60;;;5.40;99.90;;;;;;10170257;29;20258;-84
2022/11/28 15:32:34;;;;;;;33.90;20.27;;;6.80;99.90;;;;;;10168302;29;20827;-84
2022/11/28 15:37:37;;;;;;;32.40;19.90;;;7.30;99.90;;;;;;10241343;28;20654;-84
2022/11/28 15:42:39;;;;;;;34.23;20.17;;;8.90;99.90;;;;;;10349664;28;20696;-84
2022/11/28 15:47:45;;;;;;;35.60;18.50;;;8.80;99.90;;;;;;10349809;28;20227;-84
2022/11/28 15:53:13;;;;;;;31.63;18.87;;;9.00;99.90;;;;;;10349038;28;20239;-84
2022/11/28 15:58:24;;;;;;;32.40;18.73;;;9.30;98.20;;;;;;10367375;28;20228;-84
2022/11/28 16:03:31;;;;;;;33.70;20.40;;;9.50;98.20;;;;;;10367318;28;20265;-84
2022/11/28 16:08:39;;;;;;;27.70;17.80;;;9.40;97.20;;;;;;10334001;28;20204;-84
2022/11/28 16:13:42;;;;;;;34.57;20.27;;;9.20;99.90;;;;;;10349481;28;20216;-84
2022/11/28 16:18:53;;;;;;;34.17;16.40;;;9.50;99.60;;;;;;10367162;28;20258;-84
2022/11/28 16:23:55;;;;;;;33.43;19.53;;;9.10;99.90;;;;;;10349804;28;20295;-84
2022/11/28 16:29:06;;;;;;;29.77;17.47;;;9.30;98.90;;;;;;10349246;28;20205;-84
2022/11/28 16:34:12;;;;;;;29.70;16.80;;;8.80;99.90;;;;;;10355375;28;20263;-84
2022/11/28 16:39:16;;;;;;;34.60;20.20;;;8.90;99.90;;;;;;10357540;28;20629;-83
2022/11/28 16:44:22;;;;;;;31.17;19.57;;;9.20;99.70;;;;;;10357640;28;20247;-84
2022/11/28 16:49:37;;;;;;;24.83;15.87;;;9.70;99.20;;;;;;10374614;28;20232;-84
2022/11/28 16:54:39;;;;;;;30.17;15.17;;;9.60;99.90;;;;;;10374175;28;20315;-84
2022/11/28 16:59:43;;;;;;;32.70;18.90;;;9.70;99.90;;;;;;10355927;28;20251;-84
2022/11/28 17:04:47;;;;;;;35.93;21.40;;;9.60;99.90;;;;;;10373917;28;20313;-84
2022/11/28 17:09:50;;;;;;;32.77;19.30;;;9.20;99.90;;;;;;10356412;28;20237;-84
2022/11/28 17:14:54;;;;;;;40.70;26.70;;;9.50;99.90;;;;;;10356528;28;20227;-88
2022/11/28 17:19:56;;;;;;;45.10;20.80;;;9.60;95.60;;;;;;10353453;28;20290;-87
2022/11/28 17:25:00;;;;;;;41.87;24.03;;;9.30;99.90;;;;;;10323890;28;20254;-88
2022/11/28 17:30:03;;;;;;;42.37;22.30;;;9.10;99.90;;;;;;10380521;28;20254;-88
2022/11/28 17:35:13;;;;;;;54.50;24.00;;;9.30;99.90;;;;;;10348437;28;20225;-88
2022/11/28 17:40:35;;;;;;;36.77;18.37;;;9.30;99.90;;;;;;10359165;28;20285;-89
2022/11/28 17:45:37;;;;;;;38.83;21.47;;;9.60;99.90;;;;;;10369255;28;20255;-89
2022/11/28 17:50:40;;;;;;;36.53;20.80;;;9.50;99.90;;;;;;10371895;28;20200;-88
2022/11/28 17:55:48;;;;;;;32.13;20.97;;;9.60;99.90;;;;;;10311363;28;20334;-89
2022/11/28 18:00:53;;;;;;;43.23;19.53;;;9.70;99.90;;;;;;10313711;28;20563;-89
2022/11/28 18:06:03;;;;;;;37.63;21.53;;;9.70;99.90;;;;;;10328192;28;20300;-89
2022/11/28 18:11:08;;;;;;;31.37;18.27;;;9.80;99.90;;;;;;10328308;28;20268;-89
2022/11/28 18:16:15;;;;;;;34.67;18.47;;;9.60;99.90;;;;;;10328444;28;20640;-89
2022/11/28 18:21:18;;;;;;;31.03;16.33;;;9.90;99.90;;;;;;10327264;28;20982;-87
2022/11/28 18:26:24;;;;;;;32.80;17.87;;;10.10;99.90;;;;;;10327977;28;20291;-88
2022/11/28 18:31:28;;;;;;;39.40;20.13;;;10.20;99.90;;;;;;10324659;28;20291;-88
2022/11/28 18:36:33;;;;;;;33.77;19.77;;;10.30;99.90;;;;;;10329267;28;20672;-88
2022/11/28 18:41:35;;;;;;;33.87;18.63;;;11.00;99.90;;;;;;10326512;28;20217;-88
2022/11/28 18:46:38;;;;;;;36.97;23.23;;;10.80;99.90;;;;;;10326670;28;20319;-89
2022/11/28 18:51:41;;;;;;;32.93;18.40;;;10.40;99.90;;;;;;10317543;28;20295;-89
2022/11/28 18:56:44;;;;;;;30.40;20.07;;;10.50;99.90;;;;;;10296821;28;20324;-88
2022/11/28 19:01:47;;;;;;;28.60;16.57;;;10.60;99.90;;;;;;10285098;28;20233;-88
2022/11/28 19:06:50;;;;;;;26.93;16.63;;;10.60;99.90;;;;;;10282056;28;20316;-88
2022/11/28 19:11:55;;;;;;;32.27;15.87;;;10.70;99.90;;;;;;10242859;28;20676;-88
2022/11/28 19:16:57;;;;;;;35.50;18.03;;;11.10;99.90;;;;;;10283171;28;20341;-89
2022/11/28 19:22:01;;;;;;;30.73;17.93;;;10.90;99.90;;;;;;10277899;28;20284;-88
2022/11/28 19:27:05;;;;;;;26.10;16.03;;;11.00;99.90;;;;;;10290098;28;20283;-89
2022/11/28 19:32:16;;;;;;;37.30;21.80;;;10.80;99.90;;;;;;10275758;28;20233;-89
2022/11/28 19:37:19;;;;;;;31.97;19.40;;;10.40;99.90;;;;;;10282056;28;20252;-89
2022/11/28 19:42:22;;;;;;;27.90;16.37;;;10.30;99.90;;;;;;10279329;28;20288;-88
2022/11/28 19:47:25;;;;;;;25.77;15.50;;;10.50;99.90;;;;;;10293448;28;20261;-88
2022/11/28 19:52:27;;;;;;;30.83;19.70;;;10.80;99.90;;;;;;10283768;28;20233;-87
2022/11/28 19:57:30;;;;;;;33.07;19.70;;;10.60;99.90;;;;;;10344871;28;20747;-88
2022/11/28 20:02:33;;;;;;;30.30;17.10;;;10.90;99.90;;;;;;10326844;28;20286;-88
2022/11/28 20:07:35;;;;;;;24.97;16.20;;;10.60;99.90;;;;;;10364139;28;20692;-89
2022/11/28 20:12:38;;;;;;;31.07;19.60;;;10.60;99.90;;;;;;10338111;28;20275;-88
2022/11/28 20:17:41;;;;;;;36.57;21.83;;;10.70;99.90;;;;;;10347907;28;20204;-87
2022/11/28 20:22:43;;;;;;;31.03;19.13;;;10.70;99.90;;;;;;10357963;28;20529;-87
2022/11/28 20:27:47;;;;;;;26.20;16.53;;;10.20;99.90;;;;;;10325370;28;20240;-87
2022/11/28 20:32:49;;;;;;;26.00;16.47;;;10.50;99.90;;;;;;10359636;28;20719;-87
2022/11/28 20:37:52;;;;;;;26.20;15.93;;;10.50;99.90;;;;;;10320944;28;20267;-88
2022/11/28 20:42:54;;;;;;;24.07;14.10;;;10.40;99.90;;;;;;10326744;28;20252;-88
2022/11/28 20:47:57;;;;;;;25.37;15.13;;;10.90;99.90;;;;;;10343780;28;20236;-88
2022/11/28 20:52:59;;;;;;;25.77;12.83;;;10.70;99.90;;;;;;10342511;28;20264;-87
2022/11/28 20:58:02;;;;;;;30.07;18.93;;;11.10;99.90;;;;;;10321304;28;20294;-88
2022/11/28 21:03:04;;;;;;;27.27;16.20;;;10.90;99.90;;;;;;10339983;28;20249;-87
2022/11/28 21:08:07;;;;;;;27.93;16.03;;;10.70;99.90;;;;;;10348186;28;20212;-88
2022/11/28 21:13:10;;;;;;;35.23;19.00;;;11.20;99.90;;;;;;10363898;28;20239;-89
2022/11/28 21:18:14;;;;;;;31.77;17.53;;;11.40;99.90;;;;;;10366878;28;20267;-89
2022/11/28 21:23:16;;;;;;;29.30;17.50;;;10.90;99.90;;;;;;10369653;28;20313;-88
2022/11/28 21:28:19;;;;;;;27.83;17.10;;;11.20;99.90;;;;;;10348374;28;20240;-89
2022/11/28 21:33:21;;;;;;;21.37;13.03;;;11.30;99.90;;;;;;10359548;28;20236;-88
2022/11/28 21:38:24;;;;;;;25.17;16.57;;;11.00;99.90;;;;;;10359378;28;20630;-89
2022/11/28 21:43:27;;;;;;;25.00;13.77;;;11.20;99.90;;;;;;10355513;28;20676;-88
2022/11/28 21:48:32;;;;;;;22.03;14.73;;;11.70;99.90;;;;;;10358970;28;20255;-87
2022/11/28 21:53:34;;;;;;;27.63;15.80;;;11.50;99.90;;;;;;10350787;28;20338;-90
2022/11/28 21:58:37;;;;;;;27.03;16.07;;;11.40;99.90;;;;;;10336800;28;20240;-88
2022/11/28 22:03:42;;;;;;;22.37;14.70;;;11.30;99.90;;;;;;10353324;28;20278;-88
2022/11/28 22:08:47;;;;;;;28.23;17.50;;;11.00;99.90;;;;;;10335623;28;20201;-88
2022/11/28 22:13:50;;;;;;;29.63;14.57;;;11.40;99.90;;;;;;10322657;28;20232;-88
2022/11/28 22:18:56;;;;;;;25.33;16.10;;;11.50;99.90;;;;;;10349092;28;20232;-88
2022/11/28 22:23:58;;;;;;;33.27;18.43;;;11.20;99.90;;;;;;10353214;28;20256;-88
2022/11/28 22:29:02;;;;;;;25.03;13.57;;;11.40;99.90;;;;;;10352193;28;20263;-89
2022/11/28 22:34:07;;;;;;;26.70;14.83;;;11.20;99.90;;;;;;10315772;28;20279;-88
2022/11/28 22:39:10;;;;;;;26.97;15.97;;;11.30;99.90;;;;;;10346027;28;20259;-89
2022/11/28 22:44:12;;;;;;;30.13;16.43;;;11.20;99.90;;;;;;10369519;28;20247;-88
2022/11/28 22:49:15;;;;;;;40.07;20.50;;;11.00;99.90;;;;;;10331692;28;20278;-88
2022/11/28 22:54:18;;;;;;;23.53;14.57;;;10.60;99.90;;;;;;10349283;28;20263;-90
2022/11/28 22:59:22;;;;;;;24.53;14.10;;;11.00;99.90;;;;;;10351473;28;20204;-89
2022/11/28 23:04:24;;;;;;;24.00;14.30;;;11.00;99.90;;;;;;10368988;28;20259;-88
2022/11/28 23:09:27;;;;;;;38.03;18.93;;;10.80;99.90;;;;;;10350564;28;20232;-88
2022/11/28 23:14:30;;;;;;;21.67;13.60;;;11.10;99.90;;;;;;10349675;28;20243;-88
2022/11/28 23:19:33;;;;;;;25.23;13.50;;;11.50;99.90;;;;;;10329801;28;20238;-89
2022/11/28 23:24:35;;;;;;;27.67;15.43;;;11.30;99.90;;;;;;10350656;28;20263;-88
2022/11/28 23:29:39;;;;;;;22.53;13.43;;;11.50;99.90;;;;;;10367956;28;20228;-90
2022/11/28 23:34:42;;;;;;;24.47;15.47;;;11.30;99.90;;;;;;10325750;28;20684;-89
2022/11/28 23:39:45;;;;;;;26.73;15.77;;;11.10;99.90;;;;;;10347205;28;20240;-88
2022/11/28 23:44:48;;;;;;;28.03;17.17;;;11.30;99.90;;;;;;10363583;28;20244;-89
2022/11/28 23:49:50;;;;;;;20.83;11.77;;;11.00;99.90;;;;;;10338612;28;20200;-88
2022/11/28 23:54:52;;;;;;;22.37;14.60;;;11.20;99.90;;;;;;10362735;28;20741;-89
2022/11/28 23:59:55;;;;;;;22.33;14.23;;;10.80;99.90;;;;;;10326785;28;20232;-89
